createdAt,value
2023-05-15T00:00:06.748Z,98652.40
2023-05-15T00:03:00.215Z,98647.10
2023-05-15T00:05:28.328Z,98638.89
2023-05-15T00:07:56.465Z,98631.42
2023-05-15T00:10:24.420Z,98623.94
2023-05-15T00:12:52.341Z,98614.85
2023-05-15T00:15:20.183Z,98609.42
2023-05-15T00:17:48.132Z,98601.78
2023-05-15T00:20:16.220Z,98599.50
2023-05-15T00:22:44.425Z,98600.64
2023-05-15T00:25:12.365Z,98593.46
2023-05-15T00:27:40.300Z,98589.34
2023-05-15T00:30:08.913Z,98581.89
2023-05-15T00:32:36.909Z,98574.15
2023-05-15T00:35:05.402Z,98570.23
2023-05-15T00:37:33.360Z,98568.30
2023-05-15T00:40:01.310Z,98562.54
2023-05-15T00:42:29.895Z,98557.20
2023-05-15T00:45:00.740Z,98558.27
2023-05-15T00:47:29.337Z,98553.87
2023-05-15T00:49:58.055Z,98548.73
2023-05-15T00:52:26.698Z,98539.15
2023-05-15T00:54:54.772Z,98537.29
2023-05-15T00:57:24.264Z,98533.65
2023-05-15T00:59:52.925Z,98534.44
2023-05-15T01:02:21.214Z,98538.79
2023-05-15T01:04:50.002Z,98528.41
2023-05-15T01:07:18.174Z,98520.70
2023-05-15T01:09:49.459Z,98519.45
2023-05-15T01:12:18.649Z,98516.55
2023-05-15T01:14:46.612Z,98515.38
2023-05-15T01:17:14.574Z,98512.25
2023-05-15T01:19:43.381Z,98512.39
2023-05-15T01:22:41.762Z,98513.13
2023-05-15T01:25:28.229Z,98509.36
2023-05-15T01:28:03.454Z,98506.85
2023-05-15T01:30:36.220Z,98505.77
2023-05-15T01:33:24.702Z,98498.32
2023-05-15T01:36:10.967Z,98500.64
2023-05-15T01:38:48.589Z,98497.61
2023-05-15T01:41:39.593Z,98500.16
2023-05-15T01:44:11.634Z,98493.13
2023-05-15T01:46:45.432Z,98489.44
2023-05-15T01:49:15.995Z,98484.99
2023-05-15T01:51:44.646Z,98478.74
2023-05-15T01:54:14.989Z,98471.26
2023-05-15T01:56:46.952Z,98465.20
2023-05-15T01:59:16.644Z,98459.15
2023-05-15T02:01:46.138Z,98454.65
2023-05-15T02:04:15.374Z,98450.16
2023-05-15T02:06:44.424Z,98451.08
2023-05-15T02:09:13.022Z,98444.46
2023-05-15T02:11:42.113Z,98446.05
2023-05-15T02:14:12.616Z,98447.29
2023-05-15T02:16:41.203Z,98440.40
2023-05-15T02:19:09.271Z,98435.52
2023-05-15T02:21:37.200Z,98427.88
2023-05-15T02:24:05.414Z,98427.71
2023-05-15T02:26:47.753Z,98424.83
2023-05-15T02:29:42.188Z,98422.26
2023-05-15T02:32:14.720Z,98420.70
2023-05-15T02:35:13.709Z,98423.02
2023-05-15T02:37:43.084Z,98417.33
2023-05-15T02:40:13.554Z,98411.62
2023-05-15T02:42:43.977Z,98409.08
2023-05-15T02:45:12.999Z,98401.08
2023-05-15T02:47:41.138Z,98395.27
2023-05-15T02:50:10.153Z,98394.10
2023-05-15T02:52:38.092Z,98397.19
2023-05-15T02:55:06.634Z,98385.71
2023-05-15T02:57:34.497Z,98383.05
2023-05-15T03:00:02.436Z,98378.54
2023-05-15T03:02:30.489Z,98375.50
2023-05-15T03:04:58.429Z,98371.27
2023-05-15T03:07:27.029Z,98366.41
2023-05-15T03:09:54.989Z,98364.10
2023-05-15T03:12:22.938Z,98361.61
2023-05-15T03:14:50.862Z,98358.31
2023-05-15T03:17:18.908Z,98357.36
2023-05-15T03:19:46.810Z,98351.00
2023-05-15T03:22:14.870Z,98344.52
2023-05-15T03:24:43.089Z,98339.61
2023-05-15T03:27:11.031Z,98338.64
2023-05-15T03:29:38.936Z,98339.94
2023-05-15T03:32:06.920Z,98338.40
2023-05-15T03:34:34.896Z,98336.92
2023-05-15T03:37:02.887Z,98333.34
2023-05-15T03:39:30.815Z,98333.25
2023-05-15T03:41:58.769Z,98327.63
2023-05-15T03:44:26.698Z,98325.80
2023-05-15T03:46:54.666Z,98326.98
2023-05-15T03:49:22.627Z,98326.89
2023-05-15T03:51:50.726Z,98324.40
2023-05-15T03:54:19.256Z,98321.95
2023-05-15T03:56:47.241Z,98319.39
2023-05-15T03:59:15.323Z,98312.62
2023-05-15T04:01:59.440Z,98312.01
2023-05-15T04:04:31.522Z,98314.39
2023-05-15T04:07:00.496Z,98315.25
2023-05-15T04:09:28.453Z,98317.02
2023-05-15T04:11:56.434Z,98310.20
2023-05-15T04:14:24.410Z,98312.18
2023-05-15T04:16:52.532Z,98311.25
2023-05-15T04:19:20.842Z,98305.17
2023-05-15T04:21:48.847Z,98301.77
2023-05-15T04:24:16.755Z,98300.11
2023-05-15T04:26:44.707Z,98296.17
2023-05-15T04:29:12.654Z,98295.39
2023-05-15T04:31:40.593Z,98294.06
2023-05-15T04:34:08.524Z,98294.20
2023-05-15T04:36:36.584Z,98295.27
2023-05-15T04:39:04.509Z,98292.40
2023-05-15T04:41:33.283Z,98291.12
2023-05-15T04:44:01.219Z,98288.40
2023-05-15T04:46:29.480Z,98280.27
2023-05-15T04:48:57.485Z,98280.04
2023-05-15T04:51:25.426Z,98280.83
2023-05-15T04:53:53.267Z,98280.89
2023-05-15T04:56:21.742Z,98278.15
2023-05-15T04:58:49.756Z,98276.11
2023-05-15T05:01:17.650Z,98271.09
2023-05-15T05:03:45.636Z,98266.95
2023-05-15T05:06:13.611Z,98267.66
2023-05-15T05:08:41.541Z,98265.76
2023-05-15T05:11:09.573Z,98260.33
2023-05-15T05:13:37.410Z,98258.20
2023-05-15T05:16:05.846Z,98259.33
2023-05-15T05:18:33.916Z,98254.73
2023-05-15T05:21:05.156Z,98257.95
2023-05-15T05:23:33.097Z,98258.55
2023-05-15T05:26:01.084Z,98254.89
2023-05-15T05:28:29.002Z,98252.85
2023-05-15T05:30:57.072Z,98247.71
2023-05-15T05:33:25.091Z,98246.52
2023-05-15T05:35:53.112Z,98242.77
2023-05-15T05:38:21.095Z,98246.98
2023-05-15T05:40:48.988Z,98244.44
2023-05-15T05:43:16.920Z,98237.15
2023-05-15T05:45:44.890Z,98233.16
2023-05-15T05:48:13.545Z,98236.34
2023-05-15T05:50:42.436Z,98233.79
2023-05-15T05:53:10.720Z,98229.38
2023-05-15T05:55:38.750Z,98222.85
2023-05-15T05:58:14.709Z,98222.22
2023-05-15T06:00:52.572Z,98217.77
2023-05-15T06:03:21.335Z,98218.04
2023-05-15T06:05:49.569Z,98215.06
2023-05-15T06:08:17.645Z,98215.04
2023-05-15T06:10:46.085Z,98213.51
2023-05-15T06:13:15.222Z,98208.86
2023-05-15T06:15:43.925Z,98202.44
2023-05-15T06:18:11.970Z,98196.84
2023-05-15T06:20:40.108Z,98203.65
2023-05-15T06:23:08.140Z,98201.84
2023-05-15T06:25:36.547Z,98198.75
2023-05-15T06:28:04.811Z,98197.86
2023-05-15T06:30:33.018Z,98196.81
2023-05-15T06:33:01.090Z,98195.77
2023-05-15T06:35:29.185Z,98192.10
2023-05-15T06:37:58.546Z,98188.02
2023-05-15T06:40:27.098Z,98189.45
2023-05-15T06:42:55.506Z,98187.64
2023-05-15T06:45:23.516Z,98183.84
2023-05-15T06:47:51.528Z,98185.09
2023-05-15T06:50:19.799Z,98182.40
2023-05-15T06:52:47.969Z,98179.48
2023-05-15T06:55:15.914Z,98176.41
2023-05-15T06:57:43.900Z,98173.55
2023-05-15T07:00:12.575Z,98176.38
2023-05-15T07:02:40.526Z,98178.77
2023-05-15T07:05:09.012Z,98176.86
2023-05-15T07:07:37.092Z,98171.14
2023-05-15T07:10:05.924Z,98169.73
2023-05-15T07:12:34.298Z,98169.38
2023-05-15T07:15:02.208Z,98169.48
2023-05-15T07:17:32.178Z,98168.69
2023-05-15T07:20:00.249Z,98168.52
2023-05-15T07:22:29.119Z,98160.91
2023-05-15T07:24:57.104Z,98156.70
2023-05-15T07:27:25.013Z,98158.95
2023-05-15T07:29:53.972Z,98160.19
2023-05-15T07:32:21.869Z,98156.81
2023-05-15T07:34:49.827Z,98153.37
2023-05-15T07:37:17.748Z,98157.30
2023-05-15T07:39:46.693Z,98159.99
2023-05-15T07:42:14.731Z,98163.09
2023-05-15T07:44:44.343Z,98158.32
2023-05-15T07:47:13.435Z,98159.36
2023-05-15T07:49:41.366Z,98159.61
2023-05-15T07:52:09.237Z,98160.59
2023-05-15T07:54:37.105Z,98157.58
2023-05-15T07:57:05.587Z,98159.10
2023-05-15T07:59:33.815Z,98156.43
2023-05-15T08:02:02.040Z,98160.80
2023-05-15T08:04:30.024Z,98159.48
2023-05-15T08:06:58.140Z,98160.30
2023-05-15T08:09:26.041Z,98154.11
2023-05-15T08:11:57.487Z,98152.95
2023-05-15T08:14:25.486Z,98146.58
2023-05-15T08:16:53.484Z,98148.23
2023-05-15T08:19:22.207Z,98143.53
2023-05-15T08:21:51.248Z,98141.31
2023-05-15T08:24:19.110Z,98137.23
2023-05-15T08:26:47.043Z,98132.23
2023-05-15T08:29:14.962Z,98138.90
2023-05-15T08:31:42.985Z,98137.63
2023-05-15T08:34:11.359Z,98132.45
2023-05-15T08:36:39.665Z,98132.42
2023-05-15T08:39:09.318Z,98129.96
2023-05-15T08:42:19.250Z,98131.13
2023-05-15T08:44:47.895Z,98133.36
2023-05-15T08:47:16.138Z,98134.89
2023-05-15T08:50:06.859Z,98130.55
2023-05-15T08:52:35.011Z,98131.03
2023-05-15T08:55:03.917Z,98135.02
2023-05-15T08:57:33.438Z,98131.29
2023-05-15T09:00:03.168Z,98130.05
2023-05-15T09:02:31.438Z,98128.36
2023-05-15T09:04:59.422Z,98126.66
2023-05-15T09:07:27.482Z,98127.70
2023-05-15T09:09:57.080Z,98126.52
2023-05-15T09:12:26.252Z,98121.80
2023-05-15T09:15:18.185Z,98113.13
2023-05-15T09:17:46.280Z,98108.91
2023-05-15T09:20:35.700Z,98116.33
2023-05-15T09:23:06.180Z,98120.64
2023-05-15T09:25:40.528Z,98123.05
2023-05-15T09:28:10.884Z,98121.21
2023-05-15T09:30:41.747Z,98125.15
2023-05-15T09:33:10.045Z,98121.99
2023-05-15T09:35:39.574Z,98121.29
2023-05-15T09:38:12.746Z,98116.48
2023-05-15T09:40:41.138Z,98115.85
2023-05-15T09:43:12.218Z,98117.54
2023-05-15T09:45:40.282Z,98118.85
2023-05-15T09:48:08.681Z,98111.11
2023-05-15T09:50:41.483Z,98109.26
2023-05-15T09:53:12.951Z,98103.74
2023-05-15T09:55:42.580Z,98104.54
2023-05-15T09:58:16.389Z,98101.52
2023-05-15T10:00:47.579Z,98100.48
2023-05-15T10:03:22.497Z,98105.28
2023-05-15T10:05:50.903Z,98108.64
2023-05-15T10:08:27.515Z,98109.91
2023-05-15T10:10:59.774Z,98110.25
2023-05-15T10:13:30.915Z,98115.94
2023-05-15T10:15:59.208Z,98111.59
2023-05-15T10:18:30.429Z,98106.92
2023-05-15T10:21:01.354Z,98107.69
2023-05-15T10:23:31.814Z,98114.17
2023-05-15T10:26:07.753Z,98114.58
2023-05-15T10:28:36.576Z,98109.27
2023-05-15T10:31:05.032Z,98105.60
2023-05-15T10:33:33.970Z,98107.90
2023-05-15T10:36:03.580Z,98106.80
2023-05-15T10:38:33.065Z,98109.56
2023-05-15T10:41:15.653Z,98108.34
2023-05-15T10:43:44.725Z,98103.55
2023-05-15T10:46:13.874Z,98104.65
2023-05-15T10:48:42.555Z,98102.68
2023-05-15T10:51:28.074Z,98106.58
2023-05-15T10:53:56.961Z,98108.29
2023-05-15T10:56:32.518Z,98112.64
2023-05-15T10:59:08.732Z,98109.29
2023-05-15T11:01:39.086Z,98105.56
2023-05-15T11:04:11.454Z,98105.79
2023-05-15T11:06:50.562Z,98105.02
2023-05-15T11:09:21.587Z,98105.88
2023-05-15T11:11:52.869Z,98106.10
2023-05-15T11:14:24.572Z,98107.30
2023-05-15T11:16:52.555Z,98107.34
2023-05-15T11:19:29.553Z,98102.30
2023-05-15T11:22:03.836Z,98102.80
2023-05-15T11:24:46.814Z,98102.16
2023-05-15T11:27:20.545Z,98102.46
2023-05-15T11:30:26.648Z,98100.28
2023-05-15T11:32:58.524Z,98099.17
2023-05-15T11:35:32.584Z,98099.55
2023-05-15T11:38:24.964Z,98095.45
2023-05-15T11:40:58.594Z,98091.77
2023-05-15T11:43:28.475Z,98091.35
2023-05-15T11:46:17.086Z,98088.83
2023-05-15T11:48:48.002Z,98084.93
2023-05-15T11:51:25.083Z,98090.84
2023-05-15T11:53:56.747Z,98089.20
2023-05-15T11:56:28.376Z,98088.66
2023-05-15T11:59:04.014Z,98089.41
2023-05-15T12:01:43.006Z,98091.68
2023-05-15T12:04:18.640Z,98092.07
2023-05-15T12:06:49.809Z,98092.00
2023-05-15T12:09:19.551Z,98090.21
2023-05-15T12:11:50.761Z,98090.89
2023-05-15T12:14:26.807Z,98094.30
2023-05-15T12:16:57.867Z,98097.01
2023-05-15T12:19:29.179Z,98095.45
2023-05-15T12:21:57.192Z,98096.95
2023-05-15T12:24:26.629Z,98098.45
2023-05-15T12:26:57.302Z,98097.33
2023-05-15T12:29:26.895Z,98099.23
2023-05-15T12:31:55.258Z,98101.25
2023-05-15T12:34:24.749Z,98101.41
2023-05-15T12:36:52.789Z,98104.98
2023-05-15T12:39:20.805Z,98106.52
2023-05-15T12:41:50.064Z,98106.63
2023-05-15T12:44:18.641Z,98106.96
2023-05-15T12:46:47.820Z,98108.80
2023-05-15T12:49:21.768Z,98109.64
2023-05-15T12:51:50.133Z,98108.29
2023-05-15T12:54:19.928Z,98104.86
2023-05-15T12:56:48.590Z,98104.95
2023-05-15T12:59:16.583Z,98107.30
2023-05-15T13:01:45.110Z,98109.07
2023-05-15T13:04:13.143Z,98106.80
2023-05-15T13:06:46.932Z,98108.20
2023-05-15T13:09:22.720Z,98103.21
2023-05-15T13:11:50.927Z,98105.20
2023-05-15T13:14:19.549Z,98102.19
2023-05-15T13:16:47.556Z,98102.64
2023-05-15T13:19:16.112Z,98105.98
2023-05-15T13:21:45.632Z,98104.11
2023-05-15T13:24:13.642Z,98105.61
2023-05-15T13:26:41.991Z,98105.89
2023-05-15T13:29:10.145Z,98105.05
2023-05-15T13:31:38.176Z,98109.77
2023-05-15T13:34:06.540Z,98108.29
2023-05-15T13:36:34.504Z,98107.48
2023-05-15T13:39:03.747Z,98110.96
2023-05-15T13:41:31.709Z,98108.50
2023-05-15T13:44:00.256Z,98105.35
2023-05-15T13:46:28.357Z,98104.32
2023-05-15T13:48:56.288Z,98103.02
2023-05-15T13:51:24.445Z,98103.05
2023-05-15T13:53:52.408Z,98104.81
2023-05-15T13:56:20.831Z,98103.15
2023-05-15T13:58:48.735Z,98108.38
2023-05-15T14:01:16.903Z,98110.45
2023-05-15T14:03:45.573Z,98111.65
2023-05-15T14:06:13.592Z,98108.84
2023-05-15T14:08:41.500Z,98111.20
2023-05-15T14:11:09.469Z,98112.02
2023-05-15T14:13:37.437Z,98112.79
2023-05-15T14:16:05.837Z,98110.63
2023-05-15T14:18:34.000Z,98116.55
2023-05-15T14:21:02.308Z,98112.44
2023-05-15T14:23:30.327Z,98113.30
2023-05-15T14:25:58.212Z,98121.29
2023-05-15T14:28:26.135Z,98119.66
2023-05-15T14:30:54.082Z,98118.89
2023-05-15T14:33:22.050Z,98119.44
2023-05-15T14:35:50.059Z,98125.09
2023-05-15T14:38:18.001Z,98128.05
2023-05-15T14:40:46.020Z,98127.79
2023-05-15T14:43:13.995Z,98129.92
2023-05-15T14:45:41.868Z,98132.55
2023-05-15T14:48:11.719Z,98132.23
2023-05-15T14:50:39.756Z,98130.66
2023-05-15T14:53:07.740Z,98132.50
2023-05-15T14:55:35.647Z,98135.47
2023-05-15T14:58:03.564Z,98137.35
2023-05-15T15:00:32.302Z,98136.98
2023-05-15T15:03:02.672Z,98138.20
2023-05-15T15:05:30.724Z,98144.32
2023-05-15T15:08:01.670Z,98144.69
2023-05-15T15:10:30.365Z,98148.77
2023-05-15T15:12:58.842Z,98146.14
2023-05-15T15:15:27.290Z,98142.75
2023-05-15T15:17:57.366Z,98139.43
2023-05-15T15:20:26.997Z,98141.28
2023-05-15T15:22:56.232Z,98142.31
2023-05-15T15:25:24.408Z,98137.89
2023-05-15T15:27:52.614Z,98136.04
2023-05-15T15:30:20.706Z,98134.56
2023-05-15T15:32:48.825Z,98135.16
2023-05-15T15:35:16.739Z,98132.48
2023-05-15T15:37:46.199Z,98131.70
2023-05-15T15:40:15.103Z,98129.48
2023-05-15T15:42:43.029Z,98125.63
2023-05-15T15:45:11.022Z,98126.63
2023-05-15T15:47:39.054Z,98128.45
2023-05-15T15:50:07.637Z,98132.02
2023-05-15T15:52:35.625Z,98126.06
2023-05-15T15:55:03.730Z,98133.23
2023-05-15T15:57:32.755Z,98134.27
2023-05-15T16:00:01.563Z,98131.84
2023-05-15T16:02:29.593Z,98130.35
2023-05-15T16:04:57.549Z,98129.61
2023-05-15T16:07:25.458Z,98125.23
2023-05-15T16:10:00.335Z,98123.88
2023-05-15T16:12:39.300Z,98116.10
2023-05-15T16:15:21.653Z,98112.25
2023-05-15T16:17:53.514Z,98116.46
2023-05-15T16:20:23.754Z,98116.08
2023-05-15T16:22:51.937Z,98117.36
2023-05-15T16:25:20.003Z,98118.73
2023-05-15T16:27:47.971Z,98118.01
2023-05-15T16:30:16.009Z,98120.23
2023-05-15T16:32:44.035Z,98125.13
2023-05-15T16:35:12.107Z,98128.39
2023-05-15T16:37:40.095Z,98134.05
2023-05-15T16:40:08.676Z,98134.41
2023-05-15T16:42:38.069Z,98139.77
2023-05-15T16:45:06.876Z,98139.21
2023-05-15T16:47:37.682Z,98140.53
2023-05-15T16:50:09.250Z,98141.44
2023-05-15T16:52:39.049Z,98139.52
2023-05-15T16:55:07.547Z,98142.41
2023-05-15T16:57:35.624Z,98147.59
2023-05-15T17:00:04.379Z,98146.73
2023-05-15T17:02:32.447Z,98149.42
2023-05-15T17:05:00.675Z,98152.33
2023-05-15T17:07:28.706Z,98149.46
2023-05-15T17:09:56.668Z,98151.03
2023-05-15T17:12:24.652Z,98158.84
2023-05-15T17:14:52.685Z,98158.02
2023-05-15T17:17:20.892Z,98159.90
2023-05-15T17:19:49.259Z,98163.11
2023-05-15T17:22:17.155Z,98169.31
2023-05-15T17:24:51.319Z,98171.63
2023-05-15T17:27:20.557Z,98170.27
2023-05-15T17:29:48.789Z,98167.36
2023-05-15T17:32:17.524Z,98168.92
2023-05-15T17:34:46.391Z,98173.46
2023-05-15T17:37:14.908Z,98176.61
2023-05-15T17:39:43.145Z,98180.64
2023-05-15T17:42:11.094Z,98185.54
2023-05-15T17:44:39.283Z,98197.59
2023-05-15T17:47:08.610Z,98198.06
2023-05-15T17:49:37.578Z,98199.55
2023-05-15T17:52:06.637Z,98208.10
2023-05-15T17:54:34.733Z,98210.48
2023-05-15T17:57:03.150Z,98215.63
2023-05-15T17:59:31.284Z,98210.08
2023-05-15T18:01:59.371Z,98211.31
2023-05-15T18:04:27.580Z,98218.45
2023-05-15T18:06:55.673Z,98222.44
2023-05-15T18:09:24.865Z,98224.79
2023-05-15T18:11:52.961Z,98228.08
2023-05-15T18:14:20.926Z,98228.34
2023-05-15T18:16:48.938Z,98235.75
2023-05-15T18:19:17.082Z,98238.27
2023-05-15T18:21:45.243Z,98243.16
2023-05-15T18:24:13.312Z,98246.91
2023-05-15T18:26:41.379Z,98251.92
2023-05-15T18:29:09.316Z,98256.90
2023-05-15T18:31:37.374Z,98259.61
2023-05-15T18:34:05.293Z,98261.33
2023-05-15T18:36:33.454Z,98265.33
2023-05-15T18:39:02.516Z,98265.58
2023-05-15T18:41:30.734Z,98271.48
2023-05-15T18:43:58.708Z,98279.46
2023-05-15T18:46:28.409Z,98282.35
2023-05-15T18:48:56.746Z,98283.45
2023-05-15T18:51:24.709Z,98289.50
2023-05-15T18:53:52.737Z,98294.20
2023-05-15T18:56:21.659Z,98301.62
2023-05-15T18:58:49.834Z,98305.98
2023-05-15T19:01:17.908Z,98311.92
2023-05-15T19:03:46.075Z,98313.55
2023-05-15T19:06:19.700Z,98316.96
2023-05-15T19:08:48.062Z,98321.54
2023-05-15T19:11:16.991Z,98320.71
2023-05-15T19:13:45.092Z,98323.39
2023-05-15T19:16:13.153Z,98322.85
2023-05-15T19:18:41.264Z,98326.45
2023-05-15T19:21:09.225Z,98329.36
2023-05-15T19:23:37.308Z,98335.46
2023-05-15T19:26:05.400Z,98335.70
2023-05-15T19:28:33.623Z,98337.83
2023-05-15T19:31:01.627Z,98339.89
2023-05-15T19:33:29.593Z,98338.35
2023-05-15T19:35:57.552Z,98342.92
2023-05-15T19:38:25.743Z,98343.56
2023-05-15T19:40:53.783Z,98342.31
2023-05-15T19:43:22.031Z,98339.91
2023-05-15T19:45:50.020Z,98340.40
2023-05-15T19:48:17.983Z,98341.36
2023-05-15T19:50:46.270Z,98338.91
2023-05-15T19:53:14.275Z,98340.96
2023-05-15T19:55:42.201Z,98337.23
2023-05-15T19:58:10.398Z,98337.10
2023-05-15T20:00:38.512Z,98339.08
2023-05-15T20:03:06.552Z,98339.64
2023-05-15T20:05:34.515Z,98340.66
2023-05-15T20:08:02.868Z,98338.03
2023-05-15T20:10:30.968Z,98343.35
2023-05-15T20:12:59.399Z,98348.84
2023-05-15T20:15:29.443Z,98350.97
2023-05-15T20:17:58.305Z,98351.36
2023-05-15T20:20:27.106Z,98354.63
2023-05-15T20:22:55.255Z,98353.41
2023-05-15T20:25:24.353Z,98353.11
2023-05-15T20:27:56.426Z,98351.52
2023-05-15T20:30:24.809Z,98348.69
2023-05-15T20:32:53.007Z,98349.23
2023-05-15T20:35:24.009Z,98350.15
2023-05-15T20:37:53.110Z,98352.66
2023-05-15T20:40:22.993Z,98352.52
2023-05-15T20:42:51.976Z,98351.42
2023-05-15T20:45:20.252Z,98351.00
2023-05-15T20:47:48.943Z,98349.09
2023-05-15T20:50:18.003Z,98347.37
2023-05-15T20:52:46.160Z,98346.64
2023-05-15T20:55:16.335Z,98343.15
2023-05-15T20:57:44.669Z,98341.02
2023-05-15T21:00:15.406Z,98336.70
2023-05-15T21:02:45.482Z,98336.25
2023-05-15T21:05:14.001Z,98332.74
2023-05-15T21:07:42.116Z,98332.08
2023-05-15T21:10:10.854Z,98333.23
2023-05-15T21:12:39.861Z,98333.46
2023-05-15T21:15:08.459Z,98332.55
2023-05-15T21:17:36.519Z,98333.98
2023-05-15T21:20:05.004Z,98330.80
2023-05-15T21:22:33.257Z,98330.27
2023-05-15T21:25:01.321Z,98333.23
2023-05-15T21:27:29.412Z,98336.42
2023-05-15T21:29:57.464Z,98335.83
2023-05-15T21:32:25.613Z,98341.95
2023-05-15T21:34:53.499Z,98343.48
2023-05-15T21:37:21.562Z,98339.18
2023-05-15T21:39:49.429Z,98337.21
2023-05-15T21:42:17.293Z,98341.41
2023-05-15T21:44:49.289Z,98343.89
2023-05-15T21:47:17.232Z,98344.45
2023-05-15T21:49:45.296Z,98345.02
2023-05-15T21:52:13.189Z,98346.67
2023-05-15T21:54:41.115Z,98352.52
2023-05-15T21:57:09.813Z,98352.60
2023-05-15T21:59:37.797Z,98355.33
2023-05-15T22:02:07.441Z,98350.93
2023-05-15T22:04:35.686Z,98354.67
2023-05-15T22:07:03.740Z,98357.14
2023-05-15T22:09:31.750Z,98353.45
2023-05-15T22:11:59.785Z,98355.52
2023-05-15T22:14:27.721Z,98357.80
2023-05-15T22:16:55.909Z,98356.91
2023-05-15T22:19:32.702Z,98355.51
2023-05-15T22:22:03.558Z,98360.73
2023-05-15T22:24:31.504Z,98364.39
2023-05-15T22:27:00.706Z,98363.68
2023-05-15T22:29:28.597Z,98363.84
2023-05-15T22:31:56.548Z,98362.49
2023-05-15T22:34:28.760Z,98366.94
2023-05-15T22:36:56.787Z,98363.80
2023-05-15T22:39:24.640Z,98363.20
2023-05-15T22:41:52.614Z,98369.02
2023-05-15T22:44:20.447Z,98368.50
2023-05-15T22:46:48.334Z,98370.61
2023-05-15T22:49:19.309Z,98373.80
2023-05-15T22:51:47.427Z,98374.73
2023-05-15T22:54:22.261Z,98378.10
2023-05-15T22:56:52.360Z,98383.70
2023-05-15T22:59:21.002Z,98387.31
2023-05-15T23:01:49.830Z,98388.62
2023-05-15T23:04:18.246Z,98388.17
2023-05-15T23:06:46.639Z,98388.38
2023-05-15T23:09:14.609Z,98388.62
2023-05-15T23:11:42.538Z,98392.53
2023-05-15T23:14:10.384Z,98392.02
2023-05-15T23:16:38.415Z,98393.48
2023-05-15T23:19:06.460Z,98392.70
2023-05-15T23:21:34.468Z,98393.27
2023-05-15T23:24:02.477Z,98398.61
2023-05-15T23:26:30.388Z,98397.59
2023-05-15T23:28:58.324Z,98395.85
2023-05-15T23:31:26.340Z,98398.69
2023-05-15T23:33:54.391Z,98399.31
2023-05-15T23:36:22.552Z,98404.72
2023-05-15T23:38:50.785Z,98408.30
2023-05-15T23:41:18.801Z,98411.52
2023-05-15T23:43:46.814Z,98409.61
2023-05-15T23:46:14.993Z,98411.52
2023-05-15T23:48:43.139Z,98407.90
2023-05-15T23:51:11.318Z,98412.59
2023-05-15T23:53:39.221Z,98413.02
2023-05-15T23:56:08.385Z,98412.41
2023-05-15T23:58:36.330Z,98409.16
